createdAt,value
2023-03-26T00:01:33.919Z,98318.69
2023-03-26T00:04:02.377Z,98316.31
2023-03-26T00:06:33.984Z,98321.47
2023-03-26T00:09:02.056Z,98329.13
2023-03-26T00:11:31.249Z,98329.78
2023-03-26T00:13:59.420Z,98328.09
2023-03-26T00:16:31.544Z,98332.91
2023-03-26T00:19:01.447Z,98342.47
2023-03-26T00:21:31.472Z,98348.41
2023-03-26T00:24:04.548Z,98349.75
2023-03-26T00:26:33.806Z,98356.59
2023-03-26T00:29:03.866Z,98359.28
2023-03-26T00:31:34.519Z,98364.56
2023-03-26T00:34:05.701Z,98352.53
2023-03-26T00:36:35.957Z,98358.91
2023-03-26T00:39:06.258Z,98373.84
2023-03-26T00:41:37.334Z,98371.50
2023-03-26T00:44:05.582Z,98372.94
2023-03-26T00:46:35.220Z,98385.06
2023-03-26T00:49:04.225Z,98376.59
2023-03-26T00:51:34.195Z,98388.25
2023-03-26T00:54:02.454Z,98375.88
2023-03-26T00:56:30.917Z,98380.16
2023-03-26T00:59:00.259Z,98379.25
2023-03-26T01:01:30.542Z,98373.72
2023-03-26T01:04:28.474Z,98382.91
2023-03-26T01:06:58.634Z,98372.13
2023-03-26T01:09:33.676Z,98375.00
2023-03-26T01:12:02.693Z,98367.72
2023-03-26T01:14:30.956Z,98391.03
2023-03-26T01:17:01.147Z,98373.28
2023-03-26T01:19:38.288Z,98380.25
2023-03-26T01:22:09.687Z,98366.28
2023-03-26T01:24:39.499Z,98364.06
2023-03-26T01:27:18.928Z,98359.81
2023-03-26T01:29:54.694Z,98367.28
2023-03-26T01:32:48.717Z,98356.81
2023-03-26T01:35:26.077Z,98360.47
2023-03-26T01:38:11.075Z,98357.28
2023-03-26T01:40:44.078Z,98359.31
2023-03-26T01:43:19.183Z,98358.41
2023-03-26T01:45:51.257Z,98359.84
2023-03-26T01:48:19.631Z,98367.47
2023-03-26T01:50:48.801Z,98365.56
2023-03-26T01:53:17.243Z,98357.34
2023-03-26T01:56:02.142Z,98374.19
2023-03-26T01:58:37.205Z,98370.22
2023-03-26T02:01:16.962Z,98373.25
2023-03-26T02:03:52.392Z,98372.13
2023-03-26T02:06:26.985Z,98376.59
2023-03-26T02:08:59.454Z,98375.03
2023-03-26T02:11:35.560Z,98375.69
2023-03-26T02:14:05.338Z,98383.63
2023-03-26T02:16:33.525Z,98388.06
2023-03-26T02:19:01.676Z,98378.72
2023-03-26T02:21:34.055Z,98395.09
2023-03-26T02:24:04.225Z,98398.59
2023-03-26T02:26:35.048Z,98387.34
2023-03-26T02:29:03.391Z,98399.88
2023-03-26T02:31:31.523Z,98391.97
2023-03-26T02:33:59.655Z,98397.38
2023-03-26T02:36:28.840Z,98398.16
2023-03-26T02:38:58.257Z,98388.94
2023-03-26T02:41:27.804Z,98397.81
2023-03-26T02:43:57.354Z,98394.34
2023-03-26T02:46:25.496Z,98379.59
2023-03-26T02:48:53.595Z,98385.63
2023-03-26T02:51:21.821Z,98384.59
2023-03-26T02:53:49.966Z,98379.50
2023-03-26T02:56:18.022Z,98397.44
2023-03-26T02:58:46.992Z,98394.44
2023-03-26T03:01:18.460Z,98391.59
2023-03-26T03:03:48.596Z,98408.25
2023-03-26T03:06:18.931Z,98419.66
2023-03-26T03:08:47.658Z,98415.25
2023-03-26T03:11:18.144Z,98430.94
2023-03-26T03:13:46.369Z,98437.25
2023-03-26T03:16:17.213Z,98425.25
2023-03-26T03:18:45.485Z,98420.66
2023-03-26T03:21:13.597Z,98415.75
2023-03-26T03:23:41.817Z,98417.66
2023-03-26T03:26:15.795Z,98409.59
2023-03-26T03:28:45.267Z,98415.44
2023-03-26T03:31:13.584Z,98417.19
2023-03-26T03:33:43.934Z,98419.25
2023-03-26T03:36:20.595Z,98425.91
2023-03-26T03:38:51.113Z,98430.16
2023-03-26T03:41:19.386Z,98423.34
2023-03-26T03:43:47.713Z,98418.41
2023-03-26T03:46:15.917Z,98401.63
2023-03-26T03:48:49.738Z,98416.16
2023-03-26T03:51:18.458Z,98427.88
2023-03-26T03:53:47.556Z,98432.78
2023-03-26T03:56:19.111Z,98444.44
2023-03-26T03:58:47.682Z,98442.53
2023-03-26T04:01:17.135Z,98430.97
2023-03-26T04:03:47.301Z,98436.66
2023-03-26T04:06:19.206Z,98435.69
2023-03-26T04:08:47.861Z,98445.47
2023-03-26T04:11:16.159Z,98438.34
2023-03-26T04:13:44.656Z,98444.50
2023-03-26T04:16:12.914Z,98441.03
2023-03-26T04:18:41.183Z,98435.97
2023-03-26T04:21:12.777Z,98430.72
2023-03-26T04:23:42.523Z,98438.78
2023-03-26T04:26:16.869Z,98437.03
2023-03-26T04:28:49.181Z,98437.66
2023-03-26T04:31:24.306Z,98445.72
2023-03-26T04:33:55.401Z,98454.88
2023-03-26T04:36:28.649Z,98456.47
2023-03-26T04:38:58.489Z,98451.75
2023-03-26T04:41:27.432Z,98455.09
2023-03-26T04:43:56.865Z,98451.47
2023-03-26T04:46:25.470Z,98448.63
2023-03-26T04:48:54.971Z,98440.13
2023-03-26T04:51:28.423Z,98440.16
2023-03-26T04:53:58.999Z,98447.13
2023-03-26T04:56:36.070Z,98449.56
2023-03-26T04:59:04.321Z,98456.41
2023-03-26T05:01:33.237Z,98457.06
2023-03-26T05:04:01.299Z,98449.50
2023-03-26T05:06:34.386Z,98446.81
2023-03-26T05:09:03.322Z,98452.34
2023-03-26T05:11:31.566Z,98451.25
2023-03-26T05:13:59.651Z,98449.47
2023-03-26T05:16:28.161Z,98453.44
2023-03-26T05:18:56.418Z,98456.72
2023-03-26T05:21:24.649Z,98460.69
2023-03-26T05:23:54.158Z,98456.88
2023-03-26T05:26:22.258Z,98460.00
2023-03-26T05:28:52.535Z,98463.47
2023-03-26T05:31:22.372Z,98474.84
2023-03-26T05:33:51.149Z,98478.75
2023-03-26T05:36:19.370Z,98475.88
2023-03-26T05:38:49.830Z,98476.81
2023-03-26T05:41:19.948Z,98471.78
2023-03-26T05:43:49.125Z,98474.34
2023-03-26T05:46:18.158Z,98480.91
2023-03-26T05:48:46.751Z,98470.75
2023-03-26T05:51:15.756Z,98476.94
2023-03-26T05:53:43.832Z,98469.00
2023-03-26T05:56:12.168Z,98480.41
2023-03-26T05:58:42.219Z,98476.56
2023-03-26T06:01:16.692Z,98477.66
2023-03-26T06:03:46.344Z,98471.13
2023-03-26T06:06:16.841Z,98465.06
2023-03-26T06:08:46.943Z,98460.09
2023-03-26T06:11:15.099Z,98469.22
2023-03-26T06:13:45.350Z,98466.41
2023-03-26T06:16:26.530Z,98469.31
2023-03-26T06:18:57.399Z,98455.56
2023-03-26T06:21:26.474Z,98468.00
2023-03-26T06:23:54.810Z,98448.88
2023-03-26T06:26:23.294Z,98453.19
2023-03-26T06:28:52.869Z,98460.56
2023-03-26T06:31:21.018Z,98465.16
2023-03-26T06:33:49.757Z,98476.97
2023-03-26T06:36:18.062Z,98462.34
2023-03-26T06:38:46.208Z,98474.28
2023-03-26T06:41:14.730Z,98453.66
2023-03-26T06:43:42.839Z,98468.72
2023-03-26T06:46:13.488Z,98464.56
2023-03-26T06:48:42.332Z,98469.97
2023-03-26T06:51:11.263Z,98465.56
2023-03-26T06:53:39.296Z,98468.28
2023-03-26T06:56:09.162Z,98463.78
2023-03-26T06:58:37.526Z,98477.75
2023-03-26T07:01:05.863Z,98468.00
2023-03-26T07:03:35.335Z,98478.16
2023-03-26T07:06:03.493Z,98472.75
2023-03-26T07:08:32.247Z,98459.16
2023-03-26T07:11:00.593Z,98473.19
2023-03-26T07:13:28.679Z,98482.25
2023-03-26T07:15:56.743Z,98481.91
2023-03-26T07:18:24.929Z,98481.38
2023-03-26T07:20:55.694Z,98493.09
2023-03-26T07:23:24.399Z,98487.28
2023-03-26T07:25:53.264Z,98497.13
2023-03-26T07:28:27.296Z,98480.94
2023-03-26T07:31:04.594Z,98492.44
2023-03-26T07:33:38.525Z,98500.09
2023-03-26T07:36:21.956Z,98503.38
2023-03-26T07:39:11.165Z,98486.09
2023-03-26T07:41:47.004Z,98492.88
2023-03-26T07:44:46.058Z,98486.31
2023-03-26T07:47:26.156Z,98485.53
2023-03-26T07:49:55.995Z,98506.78
2023-03-26T07:52:26.915Z,98500.78
2023-03-26T07:54:55.817Z,98507.09
2023-03-26T07:57:34.710Z,98476.31
2023-03-26T08:00:11.801Z,98474.84
2023-03-26T08:02:47.078Z,98479.69
2023-03-26T08:05:21.746Z,98462.91
2023-03-26T08:08:03.010Z,98466.16
2023-03-26T08:10:39.513Z,98475.75
2023-03-26T08:13:20.702Z,98452.06
2023-03-26T08:15:55.265Z,98474.84
2023-03-26T08:18:33.120Z,98442.03
2023-03-26T08:21:06.428Z,98442.72
2023-03-26T08:23:50.409Z,98445.19
2023-03-26T08:26:29.655Z,98446.06
2023-03-26T08:29:08.891Z,98443.00
2023-03-26T08:31:40.335Z,98444.56
2023-03-26T08:34:12.247Z,98442.25
2023-03-26T08:36:40.727Z,98455.13
2023-03-26T08:39:10.418Z,98461.69
2023-03-26T08:42:22.089Z,98482.66
2023-03-26T08:45:17.874Z,98468.88
2023-03-26T08:48:08.585Z,98468.34
2023-03-26T08:51:28.290Z,98505.13
2023-03-26T08:54:32.410Z,98480.59
2023-03-26T08:57:23.602Z,98482.84
2023-03-26T09:00:13.677Z,98499.31
2023-03-26T09:03:09.481Z,98479.53
2023-03-26T09:05:56.653Z,98492.25
2023-03-26T09:09:00.767Z,98493.09
2023-03-26T09:11:54.780Z,98487.50
2023-03-26T09:15:03.961Z,98496.81
2023-03-26T09:18:01.025Z,98499.44
2023-03-26T09:21:12.427Z,98488.47
2023-03-26T09:24:25.663Z,98481.53
2023-03-26T09:27:04.742Z,98482.69
2023-03-26T09:30:13.930Z,98479.03
2023-03-26T09:33:11.705Z,98491.72
2023-03-26T09:35:54.544Z,98493.94
2023-03-26T09:38:40.531Z,98491.56
2023-03-26T09:41:17.874Z,98491.56
2023-03-26T09:44:21.090Z,98486.72
2023-03-26T09:47:06.622Z,98480.06
2023-03-26T09:49:47.064Z,98483.66
2023-03-26T09:52:30.190Z,98475.69
2023-03-26T09:55:22.121Z,98486.00
2023-03-26T09:58:09.440Z,98486.78
2023-03-26T10:00:47.014Z,98486.25
2023-03-26T10:03:44.072Z,98470.84
2023-03-26T10:06:24.947Z,98469.41
2023-03-26T10:09:08.031Z,98484.50
2023-03-26T10:11:58.448Z,98459.34
2023-03-26T10:14:33.851Z,98458.38
2023-03-26T10:17:12.865Z,98451.78
2023-03-26T10:19:58.516Z,98461.59
2023-03-26T10:22:42.549Z,98453.69
2023-03-26T10:25:45.480Z,98455.09
2023-03-26T10:28:34.728Z,98454.16
2023-03-26T10:31:25.841Z,98446.78
2023-03-26T10:34:06.972Z,98459.66
2023-03-26T10:36:38.672Z,98450.16
2023-03-26T10:39:37.793Z,98441.28
2023-03-26T10:42:25.506Z,98433.84
2023-03-26T10:45:15.558Z,98439.38
2023-03-26T10:48:00.118Z,98435.25
2023-03-26T10:50:36.899Z,98433.31
2023-03-26T10:53:13.210Z,98426.41
2023-03-26T10:55:45.500Z,98435.16
2023-03-26T10:58:22.998Z,98431.94
2023-03-26T11:00:57.240Z,98436.78
2023-03-26T11:03:52.010Z,98429.13
2023-03-26T11:06:32.044Z,98421.38
2023-03-26T11:09:14.936Z,98434.38
2023-03-26T11:11:50.459Z,98422.41
2023-03-26T11:14:34.397Z,98423.16
2023-03-26T11:17:14.681Z,98413.94
2023-03-26T11:19:52.019Z,98406.50
2023-03-26T11:22:29.042Z,98400.81
2023-03-26T11:25:34.045Z,98402.84
2023-03-26T11:28:13.028Z,98409.19
2023-03-26T11:30:49.842Z,98394.44
2023-03-26T11:33:22.143Z,98392.63
2023-03-26T11:35:54.036Z,98397.56
2023-03-26T11:38:27.762Z,98387.88
2023-03-26T11:40:59.359Z,98390.88
2023-03-26T11:43:33.537Z,98378.47
2023-03-26T11:46:04.720Z,98387.88
2023-03-26T11:48:37.182Z,98370.06
2023-03-26T11:51:10.886Z,98377.22
2023-03-26T11:53:40.652Z,98379.63
2023-03-26T11:56:22.166Z,98370.88
2023-03-26T11:58:55.754Z,98371.22
2023-03-26T12:01:30.517Z,98354.78
2023-03-26T12:04:04.763Z,98361.31
2023-03-26T12:06:33.169Z,98365.53
2023-03-26T12:09:01.328Z,98362.31
2023-03-26T12:11:35.615Z,98357.34
2023-03-26T12:14:06.264Z,98357.09
2023-03-26T12:16:36.183Z,98352.19
2023-03-26T12:19:07.480Z,98348.00
2023-03-26T12:21:47.232Z,98348.44
2023-03-26T12:24:29.378Z,98336.28
2023-03-26T12:27:03.557Z,98330.50
2023-03-26T12:29:34.660Z,98334.88
2023-03-26T12:32:08.797Z,98312.00
2023-03-26T12:34:39.577Z,98311.22
2023-03-26T12:37:09.485Z,98314.81
2023-03-26T12:40:07.450Z,98305.97
2023-03-26T12:44:48.634Z,98302.63
2023-03-26T12:45:23.819Z,98291.25
2023-03-26T12:48:00.605Z,98293.56
2023-03-26T12:50:47.628Z,98290.91
2023-03-26T12:53:38.682Z,98289.13
2023-03-26T12:56:19.992Z,98276.00
2023-03-26T12:59:11.812Z,98287.72
2023-03-26T13:01:51.122Z,98277.72
2023-03-26T13:04:38.345Z,98275.56
2023-03-26T13:07:16.068Z,98280.09
2023-03-26T13:10:00.230Z,98275.72
2023-03-26T13:12:38.271Z,98274.41
2023-03-26T13:15:19.151Z,98282.16
2023-03-26T13:18:01.153Z,98266.84
2023-03-26T13:20:37.524Z,98271.19
2023-03-26T13:23:18.473Z,98280.25
2023-03-26T13:25:55.442Z,98275.03
2023-03-26T13:28:33.750Z,98273.34
2023-03-26T13:31:11.034Z,98275.41
2023-03-26T13:33:47.333Z,98264.13
2023-03-26T13:36:24.235Z,98271.50
2023-03-26T13:39:15.341Z,98259.75
2023-03-26T13:41:56.773Z,98256.31
2023-03-26T13:44:33.961Z,98259.78
2023-03-26T13:47:09.215Z,98254.94
2023-03-26T13:49:42.900Z,98251.25
2023-03-26T13:52:16.435Z,98259.16
2023-03-26T13:54:48.132Z,98257.19
2023-03-26T13:57:21.775Z,98257.97
2023-03-26T13:59:54.587Z,98252.84
2023-03-26T14:02:32.055Z,98241.22
2023-03-26T14:05:06.384Z,98249.09
2023-03-26T14:07:42.028Z,98254.50
2023-03-26T14:10:13.416Z,98253.66
2023-03-26T14:12:56.241Z,98248.59
2023-03-26T14:15:28.407Z,98257.69
2023-03-26T14:18:07.782Z,98258.31
2023-03-26T14:21:10.808Z,98260.50
2023-03-26T14:24:02.689Z,98254.88
2023-03-26T14:26:49.740Z,98247.94
2023-03-26T14:29:34.908Z,98262.56
2023-03-26T14:32:24.421Z,98255.38
2023-03-26T14:35:11.675Z,98254.84
2023-03-26T14:38:09.552Z,98258.06
2023-03-26T14:40:59.231Z,98249.03
2023-03-26T14:43:56.026Z,98245.28
2023-03-26T14:46:41.871Z,98239.44
2023-03-26T14:49:28.587Z,98230.03
2023-03-26T14:52:05.341Z,98229.66
2023-03-26T14:54:38.261Z,98228.50
2023-03-26T14:57:27.530Z,98217.41
2023-03-26T15:00:32.807Z,98211.88
2023-03-26T15:03:38.867Z,98213.44
2023-03-26T15:06:32.980Z,98209.06
2023-03-26T15:09:37.607Z,98207.38
2023-03-26T15:12:16.451Z,98213.44
2023-03-26T15:15:16.046Z,98200.06
2023-03-26T15:18:28.567Z,98204.94
2023-03-26T15:21:32.307Z,98191.13
2023-03-26T15:24:36.920Z,98189.63
2023-03-26T15:27:33.666Z,98189.94
2023-03-26T15:30:52.321Z,98183.00
2023-03-26T15:33:51.397Z,98183.28
2023-03-26T15:37:00.458Z,98181.03
2023-03-26T15:39:59.500Z,98165.38
2023-03-26T15:42:38.289Z,98166.69
2023-03-26T15:45:33.646Z,98171.25
2023-03-26T15:48:32.064Z,98164.00
2023-03-26T15:51:15.482Z,98162.91
2023-03-26T15:53:51.388Z,98147.13
2023-03-26T15:56:33.059Z,98150.00
2023-03-26T15:59:12.360Z,98145.47
2023-03-26T16:02:05.233Z,98148.22
2023-03-26T16:04:50.425Z,98150.78
2023-03-26T16:07:49.256Z,98151.25
2023-03-26T16:10:29.528Z,98142.63
2023-03-26T16:13:24.082Z,98147.28
2023-03-26T16:15:58.552Z,98142.34
2023-03-26T16:18:35.983Z,98139.56
2023-03-26T16:21:38.349Z,98138.41
2023-03-26T16:24:33.685Z,98137.06
2023-03-26T16:27:29.953Z,98131.59
2023-03-26T16:30:27.445Z,98138.47
2023-03-26T16:33:07.413Z,98141.88
2023-03-26T16:35:55.636Z,98133.47
2023-03-26T16:38:27.447Z,98130.31
2023-03-26T16:41:04.017Z,98138.00
2023-03-26T16:43:58.983Z,98132.97
2023-03-26T16:46:43.693Z,98136.75
2023-03-26T16:49:27.544Z,98138.34
2023-03-26T16:52:16.914Z,98141.50
2023-03-26T16:57:28.131Z,98135.28
2023-03-26T17:00:24.380Z,98138.09
2023-03-26T17:03:03.709Z,98143.91
2023-03-26T17:05:38.990Z,98149.25
2023-03-26T17:08:16.915Z,98151.13
2023-03-26T17:10:57.737Z,98162.84
2023-03-26T17:13:35.455Z,98160.88
2023-03-26T17:16:14.013Z,98168.84
2023-03-26T17:18:51.691Z,98166.66
2023-03-26T17:21:29.248Z,98164.19
2023-03-26T17:24:26.786Z,98170.22
2023-03-26T17:27:02.636Z,98177.03
2023-03-26T17:29:51.240Z,98187.19
2023-03-26T17:32:21.719Z,98196.59
2023-03-26T17:35:00.828Z,98200.59
2023-03-26T17:37:49.710Z,98204.56
2023-03-26T17:40:46.603Z,98214.50
2023-03-26T17:43:38.262Z,98202.66
2023-03-26T17:46:16.745Z,98202.56
2023-03-26T17:48:48.642Z,98197.63
2023-03-26T17:51:37.253Z,98188.16
2023-03-26T17:54:15.909Z,98191.78
2023-03-26T17:56:44.945Z,98185.38
2023-03-26T17:59:23.605Z,98184.38
2023-03-26T18:01:56.029Z,98183.03
2023-03-26T18:04:31.752Z,98187.88
2023-03-26T18:07:39.252Z,98187.75
2023-03-26T18:10:30.357Z,98176.41
2023-03-26T18:13:21.642Z,98185.53
2023-03-26T18:16:07.477Z,98183.06
2023-03-26T18:18:41.373Z,98180.56
2023-03-26T18:21:13.331Z,98180.47
2023-03-26T18:23:48.058Z,98171.22
2023-03-26T18:26:21.281Z,98177.97
2023-03-26T18:28:53.192Z,98175.50
2023-03-26T18:31:24.965Z,98169.06
2023-03-26T18:33:59.388Z,98165.59
2023-03-26T18:36:28.941Z,98156.13
2023-03-26T18:38:59.266Z,98157.13
2023-03-26T18:41:37.638Z,98161.84
2023-03-26T18:44:08.871Z,98163.19
2023-03-26T18:46:37.500Z,98159.75
2023-03-26T18:49:06.544Z,98160.63
2023-03-26T18:51:46.488Z,98151.97
2023-03-26T18:54:22.913Z,98163.75
2023-03-26T18:56:52.889Z,98166.06
2023-03-26T18:59:28.261Z,98158.25
2023-03-26T19:01:58.676Z,98151.28
2023-03-26T19:04:28.089Z,98149.97
2023-03-26T19:06:57.995Z,98150.03
2023-03-26T19:09:32.158Z,98149.91
2023-03-26T19:12:09.017Z,98144.53
2023-03-26T19:14:55.140Z,98146.09
2023-03-26T19:17:25.117Z,98138.47
2023-03-26T19:19:53.460Z,98138.47
2023-03-26T19:22:23.546Z,98133.88
2023-03-26T19:24:57.928Z,98133.41
2023-03-26T19:27:27.793Z,98135.97
2023-03-26T19:29:56.430Z,98131.13
2023-03-26T19:32:32.573Z,98131.97
2023-03-26T19:35:02.396Z,98120.91
2023-03-26T19:37:32.462Z,98125.69
2023-03-26T19:40:14.283Z,98123.06
2023-03-26T19:42:45.126Z,98122.16
2023-03-26T19:45:17.617Z,98129.16
2023-03-26T19:47:50.475Z,98116.22
2023-03-26T19:50:26.222Z,98107.53
2023-03-26T19:53:17.728Z,98093.34
2023-03-26T19:55:55.847Z,98090.47
2023-03-26T19:58:26.354Z,98087.53
2023-03-26T20:00:56.411Z,98079.31
2023-03-26T20:03:28.850Z,98085.00
2023-03-26T20:05:57.494Z,98082.63
2023-03-26T20:08:28.000Z,98083.44
2023-03-26T20:10:58.337Z,98085.78
2023-03-26T20:13:30.235Z,98092.16
2023-03-26T20:16:05.714Z,98083.28
2023-03-26T20:18:51.964Z,98079.03
2023-03-26T20:21:20.172Z,98073.03
2023-03-26T20:23:48.622Z,98079.84
2023-03-26T20:26:18.661Z,98076.84
2023-03-26T20:28:53.286Z,98078.44
2023-03-26T20:31:25.211Z,98077.84
2023-03-26T20:33:55.134Z,98068.81
2023-03-26T20:36:34.103Z,98062.38
2023-03-26T20:39:06.328Z,98065.38
2023-03-26T20:41:35.880Z,98052.09
2023-03-26T20:44:13.736Z,98051.81
2023-03-26T20:46:43.727Z,98044.56
2023-03-26T20:49:12.405Z,98043.63
2023-03-26T20:51:42.104Z,98033.69
2023-03-26T20:54:16.199Z,98030.56
2023-03-26T20:56:45.750Z,98030.22
2023-03-26T20:59:19.461Z,98022.19
2023-03-26T21:01:48.776Z,98029.94
2023-03-26T21:04:18.099Z,98018.41
2023-03-26T21:06:46.590Z,98004.22
2023-03-26T21:09:17.870Z,98002.00
2023-03-26T21:11:53.146Z,97994.59
2023-03-26T21:14:25.879Z,97999.00
2023-03-26T21:16:54.782Z,97995.53
2023-03-26T21:19:23.536Z,98000.41
2023-03-26T21:22:04.859Z,97989.53
2023-03-26T21:24:50.179Z,97989.53
2023-03-26T21:27:26.145Z,97980.22
2023-03-26T21:29:58.265Z,97978.66
2023-03-26T21:32:27.130Z,97987.19
2023-03-26T21:34:59.189Z,97982.75
2023-03-26T21:37:28.742Z,97975.00
2023-03-26T21:39:57.547Z,97983.38
2023-03-26T21:42:29.476Z,97979.44
2023-03-26T21:45:02.828Z,97973.72
2023-03-26T21:47:31.594Z,97983.66
2023-03-26T21:50:00.235Z,97971.03
2023-03-26T21:52:30.687Z,97972.44
2023-03-26T21:55:00.976Z,97969.09
2023-03-26T21:57:43.650Z,97978.56
2023-03-26T22:00:16.293Z,97980.28
2023-03-26T22:02:57.545Z,97979.50
2023-03-26T22:05:33.761Z,97967.66
2023-03-26T22:08:03.682Z,97965.13
2023-03-26T22:10:32.985Z,97945.09
2023-03-26T22:13:03.951Z,97933.25
2023-03-26T22:15:34.164Z,97932.00
2023-03-26T22:18:03.790Z,97940.50
2023-03-26T22:20:32.290Z,97928.06
2023-03-26T22:23:01.912Z,97928.06
2023-03-26T22:25:30.328Z,97914.81
2023-03-26T22:27:58.690Z,97902.16
2023-03-26T22:30:27.334Z,97900.59
2023-03-26T22:32:57.052Z,97891.28
2023-03-26T22:35:26.246Z,97890.31
2023-03-26T22:38:00.815Z,97891.25
2023-03-26T22:40:29.056Z,97881.63
2023-03-26T22:42:57.280Z,97867.13
2023-03-26T22:45:26.165Z,97865.72
2023-03-26T22:48:03.927Z,97865.91
2023-03-26T22:50:33.975Z,97872.69
2023-03-26T22:53:02.127Z,97882.34
2023-03-26T22:55:30.327Z,97877.44
2023-03-26T22:57:58.698Z,97871.63
2023-03-26T23:00:26.846Z,97871.75
2023-03-26T23:03:00.840Z,97870.31
2023-03-26T23:05:29.521Z,97863.81
2023-03-26T23:07:59.364Z,97859.50
2023-03-26T23:10:30.196Z,97874.47
2023-03-26T23:12:58.303Z,97863.72
2023-03-26T23:15:27.033Z,97857.41
2023-03-26T23:17:55.385Z,97859.91
2023-03-26T23:20:23.655Z,97854.06
2023-03-26T23:22:52.690Z,97846.50
2023-03-26T23:25:22.319Z,97852.16
2023-03-26T23:27:50.733Z,97850.88
2023-03-26T23:30:19.437Z,97834.66
2023-03-26T23:32:47.840Z,97824.69
2023-03-26T23:35:16.096Z,97817.78
2023-03-26T23:37:44.176Z,97820.34
2023-03-26T23:40:13.907Z,97829.09
2023-03-26T23:42:43.726Z,97829.13
2023-03-26T23:45:13.125Z,97822.88
2023-03-26T23:47:42.680Z,97824.03
2023-03-26T23:50:13.046Z,97831.09
2023-03-26T23:52:41.371Z,97832.53
2023-03-26T23:55:10.121Z,97833.16
2023-03-26T23:57:38.288Z,97819.59
